createdAt,value
2022-11-30T12:05:19.466Z,21.91
2022-11-30T12:05:30.363Z,21.85
2022-11-30T12:05:40.368Z,21.89
2022-11-30T12:05:50.373Z,22.09
2022-11-30T12:06:00.373Z,22.26
2022-11-30T12:06:10.355Z,22.33
2022-11-30T12:06:20.351Z,22.30
2022-11-30T12:06:30.329Z,22.17
2022-11-30T12:06:40.330Z,21.99
2022-11-30T12:06:50.326Z,21.79
2022-11-30T12:07:00.312Z,21.58
2022-11-30T12:07:12.537Z,21.39
2022-11-30T12:07:20.371Z,21.21
2022-11-30T12:07:30.359Z,21.02
2022-11-30T12:07:40.331Z,20.84
2022-11-30T12:07:50.493Z,20.67
2022-11-30T12:08:00.320Z,20.52
2022-11-30T12:08:10.248Z,20.37
2022-11-30T12:08:20.239Z,20.24
2022-11-30T12:08:30.235Z,20.11
2022-11-30T12:08:40.228Z,19.99
2022-11-30T12:08:50.222Z,19.90
2022-11-30T12:09:00.203Z,19.82
2022-11-30T12:09:10.203Z,19.74
2022-11-30T12:09:20.189Z,19.65
2022-11-30T12:09:30.209Z,19.58
2022-11-30T12:09:40.181Z,19.53
2022-11-30T12:09:50.165Z,19.49
2022-11-30T12:10:00.149Z,19.44
2022-11-30T12:10:35.625Z,19.39
2022-11-30T12:10:55.124Z,19.36
2022-11-30T12:10:59.761Z,19.26
2022-11-30T12:11:09.733Z,19.24
2022-11-30T12:11:19.723Z,19.23
2022-11-30T12:11:29.737Z,19.23
2022-11-30T12:11:39.699Z,19.23
2022-11-30T12:11:49.691Z,19.23
2022-11-30T12:11:59.682Z,19.25
2022-11-30T12:12:09.685Z,19.26
2022-11-30T12:12:19.653Z,19.28
2022-11-30T12:12:29.648Z,19.29
2022-11-30T12:12:44.878Z,19.29
2022-11-30T12:12:54.958Z,19.27
2022-11-30T12:12:59.806Z,19.25
2022-11-30T12:13:09.784Z,19.22
2022-11-30T12:13:19.782Z,19.19
2022-11-30T12:13:29.788Z,19.16
2022-11-30T12:13:39.749Z,19.13
2022-11-30T12:13:49.746Z,19.12
2022-11-30T12:13:59.746Z,19.12
